Mezocsat, Hungary
Current Conditions -  °F | °C
As of 7:45 AM on Sunday 26 Oct 2014 (Local Time) from LHDC Reporting Station
Haze Haze  
Wind Chill: 36°   Ceiling: 4000
Heat Index: 39°   Visibility: 3mi
Dew Point: 39°   Wind: 5mph
Humidity: 100%   Direction: 70°ENE
Pressure: 30.39"   Gusts: NA
Location:  47.82°N, 20.91°E
Report Text: LHDC 260545Z 07004KT 5000 BR BKN040 04/04 Q1029
Loading
Personal Weather Stations






























Interactive Weather Map
Tropical Storm Tracking
New forecast layout! Learn more

10-Day Weather Forecast

Advertisements
Track Severe Weather on mobile